sensor_id;sensor_type;location;lat;lon;timestamp;P1;durP1;ratioP1;P2;durP2;ratioP2
25731;SDS011;13585;50.864;4.406;2023-05-29T00:00:09;5.88;;;3.83;;
25731;SDS011;13585;50.864;4.406;2023-05-29T00:02:35;6.05;;;3.70;;
25731;SDS011;13585;50.864;4.406;2023-05-29T00:05:00;4.70;;;3.60;;
25731;SDS011;13585;50.864;4.406;2023-05-29T00:07:30;7.18;;;3.65;;
25731;SDS011;13585;50.864;4.406;2023-05-29T00:10:00;6.18;;;3.75;;
25731;SDS011;13585;50.864;4.406;2023-05-29T00:12:25;5.13;;;3.55;;
25731;SDS011;13585;50.864;4.406;2023-05-29T00:14:51;5.18;;;3.63;;
25731;SDS011;13585;50.864;4.406;2023-05-29T00:17:17;6.65;;;3.30;;
25731;SDS011;13585;50.864;4.406;2023-05-29T00:19:43;6.28;;;3.70;;
25731;SDS011;13585;50.864;4.406;2023-05-29T00:22:08;5.28;;;3.60;;
25731;SDS011;13585;50.864;4.406;2023-05-29T00:24:35;5.65;;;3.70;;
25731;SDS011;13585;50.864;4.406;2023-05-29T00:27:00;5.18;;;3.67;;
25731;SDS011;13585;50.864;4.406;2023-05-29T00:29:26;6.10;;;3.65;;
25731;SDS011;13585;50.864;4.406;2023-05-29T00:31:52;5.45;;;3.55;;
25731;SDS011;13585;50.864;4.406;2023-05-29T00:34:18;6.80;;;4.20;;
25731;SDS011;13585;50.864;4.406;2023-05-29T00:36:45;8.10;;;3.95;;
25731;SDS011;13585;50.864;4.406;2023-05-29T00:39:11;6.07;;;3.55;;
25731;SDS011;13585;50.864;4.406;2023-05-29T00:41:37;5.15;;;3.55;;
25731;SDS011;13585;50.864;4.406;2023-05-29T00:44:06;5.65;;;3.90;;
25731;SDS011;13585;50.864;4.406;2023-05-29T00:46:31;7.55;;;3.72;;
25731;SDS011;13585;50.864;4.406;2023-05-29T00:49:01;8.63;;;3.60;;
25731;SDS011;13585;50.864;4.406;2023-05-29T00:51:29;5.07;;;3.78;;
25731;SDS011;13585;50.864;4.406;2023-05-29T00:53:56;4.65;;;3.08;;
25731;SDS011;13585;50.864;4.406;2023-05-29T00:56:23;6.00;;;4.13;;
25731;SDS011;13585;50.864;4.406;2023-05-29T00:58:51;7.93;;;3.53;;
25731;SDS011;13585;50.864;4.406;2023-05-29T01:01:17;5.20;;;3.72;;
25731;SDS011;13585;50.864;4.406;2023-05-29T01:03:43;7.05;;;3.60;;
25731;SDS011;13585;50.864;4.406;2023-05-29T01:06:10;4.80;;;3.28;;
25731;SDS011;13585;50.864;4.406;2023-05-29T01:08:36;6.35;;;3.83;;
25731;SDS011;13585;50.864;4.406;2023-05-29T01:14:15;6.05;;;4.25;;
25731;SDS011;13585;50.864;4.406;2023-05-29T01:16:51;4.38;;;3.20;;
25731;SDS011;13585;50.864;4.406;2023-05-29T01:27:57;5.35;;;3.70;;
25731;SDS011;13585;50.864;4.406;2023-05-29T01:30:25;5.22;;;3.47;;
25731;SDS011;13585;50.864;4.406;2023-05-29T01:32:54;6.57;;;3.72;;
25731;SDS011;13585;50.864;4.406;2023-05-29T01:35:20;6.22;;;3.58;;
25731;SDS011;13585;50.864;4.406;2023-05-29T01:37:46;7.00;;;4.00;;
25731;SDS011;13585;50.864;4.406;2023-05-29T01:40:11;8.30;;;4.13;;
25731;SDS011;13585;50.864;4.406;2023-05-29T01:42:37;5.70;;;3.97;;
25731;SDS011;13585;50.864;4.406;2023-05-29T01:45:05;5.28;;;3.50;;
25731;SDS011;13585;50.864;4.406;2023-05-29T01:47:31;4.38;;;3.50;;
25731;SDS011;13585;50.864;4.406;2023-05-29T01:49:58;4.97;;;3.22;;
25731;SDS011;13585;50.864;4.406;2023-05-29T01:52:24;4.50;;;3.80;;
25731;SDS011;13585;50.864;4.406;2023-05-29T01:54:50;5.80;;;3.75;;
25731;SDS011;13585;50.864;4.406;2023-05-29T01:57:16;4.75;;;3.35;;
25731;SDS011;13585;50.864;4.406;2023-05-29T01:59:42;4.90;;;3.33;;
25731;SDS011;13585;50.864;4.406;2023-05-29T02:02:08;7.88;;;3.88;;
25731;SDS011;13585;50.864;4.406;2023-05-29T02:04:34;5.57;;;3.78;;
25731;SDS011;13585;50.864;4.406;2023-05-29T02:06:59;6.80;;;3.80;;
25731;SDS011;13585;50.864;4.406;2023-05-29T02:09:25;5.63;;;3.67;;
25731;SDS011;13585;50.864;4.406;2023-05-29T02:11:51;5.43;;;3.70;;
25731;SDS011;13585;50.864;4.406;2023-05-29T02:14:17;5.50;;;3.67;;
25731;SDS011;13585;50.864;4.406;2023-05-29T02:16:42;4.63;;;3.10;;
25731;SDS011;13585;50.864;4.406;2023-05-29T02:19:09;5.70;;;3.50;;
25731;SDS011;13585;50.864;4.406;2023-05-29T02:21:37;4.53;;;3.60;;
25731;SDS011;13585;50.864;4.406;2023-05-29T02:24:03;7.00;;;3.80;;
25731;SDS011;13585;50.864;4.406;2023-05-29T02:26:29;5.47;;;3.60;;
25731;SDS011;13585;50.864;4.406;2023-05-29T02:28:54;5.32;;;3.25;;
25731;SDS011;13585;50.864;4.406;2023-05-29T02:31:21;6.80;;;3.72;;
25731;SDS011;13585;50.864;4.406;2023-05-29T02:33:46;5.43;;;3.30;;
25731;SDS011;13585;50.864;4.406;2023-05-29T02:36:12;5.22;;;3.13;;
25731;SDS011;13585;50.864;4.406;2023-05-29T02:38:38;5.65;;;3.70;;
25731;SDS011;13585;50.864;4.406;2023-05-29T02:41:04;7.50;;;3.40;;
25731;SDS011;13585;50.864;4.406;2023-05-29T02:43:30;5.05;;;3.13;;
25731;SDS011;13585;50.864;4.406;2023-05-29T02:45:56;5.70;;;3.25;;
25731;SDS011;13585;50.864;4.406;2023-05-29T02:48:22;4.80;;;3.20;;
25731;SDS011;13585;50.864;4.406;2023-05-29T02:50:47;5.88;;;3.42;;
25731;SDS011;13585;50.864;4.406;2023-05-29T02:53:13;3.95;;;2.90;;
25731;SDS011;13585;50.864;4.406;2023-05-29T02:55:39;6.05;;;2.90;;
25731;SDS011;13585;50.864;4.406;2023-05-29T02:58:04;6.45;;;3.55;;
25731;SDS011;13585;50.864;4.406;2023-05-29T03:00:30;4.47;;;3.10;;
25731;SDS011;13585;50.864;4.406;2023-05-29T03:02:56;4.57;;;2.90;;
25731;SDS011;13585;50.864;4.406;2023-05-29T03:05:21;5.18;;;3.20;;
25731;SDS011;13585;50.864;4.406;2023-05-29T03:07:47;4.90;;;3.10;;
25731;SDS011;13585;50.864;4.406;2023-05-29T03:10:13;6.70;;;3.13;;
25731;SDS011;13585;50.864;4.406;2023-05-29T03:12:42;4.68;;;2.95;;
25731;SDS011;13585;50.864;4.406;2023-05-29T03:15:09;4.90;;;3.13;;
25731;SDS011;13585;50.864;4.406;2023-05-29T03:17:35;5.32;;;3.00;;
25731;SDS011;13585;50.864;4.406;2023-05-29T03:20:02;4.80;;;2.88;;
25731;SDS011;13585;50.864;4.406;2023-05-29T03:22:36;4.95;;;3.03;;
25731;SDS011;13585;50.864;4.406;2023-05-29T03:25:02;6.75;;;2.97;;
25731;SDS011;13585;50.864;4.406;2023-05-29T03:27:29;5.63;;;2.55;;
25731;SDS011;13585;50.864;4.406;2023-05-29T03:29:55;5.30;;;2.95;;
25731;SDS011;13585;50.864;4.406;2023-05-29T03:32:21;6.13;;;3.20;;
25731;SDS011;13585;50.864;4.406;2023-05-29T03:34:47;5.07;;;3.10;;
25731;SDS011;13585;50.864;4.406;2023-05-29T03:37:13;4.68;;;2.90;;
25731;SDS011;13585;50.864;4.406;2023-05-29T03:39:38;6.88;;;2.97;;
25731;SDS011;13585;50.864;4.406;2023-05-29T03:42:04;6.07;;;2.90;;
25731;SDS011;13585;50.864;4.406;2023-05-29T03:44:30;4.45;;;2.60;;
25731;SDS011;13585;50.864;4.406;2023-05-29T03:46:56;4.85;;;2.70;;
25731;SDS011;13585;50.864;4.406;2023-05-29T03:49:21;6.05;;;2.88;;
25731;SDS011;13585;50.864;4.406;2023-05-29T03:51:47;7.40;;;3.15;;
25731;SDS011;13585;50.864;4.406;2023-05-29T03:54:14;6.10;;;2.85;;
25731;SDS011;13585;50.864;4.406;2023-05-29T03:56:40;5.40;;;2.88;;
25731;SDS011;13585;50.864;4.406;2023-05-29T03:59:06;4.72;;;2.70;;
25731;SDS011;13585;50.864;4.406;2023-05-29T04:01:31;5.30;;;2.92;;
25731;SDS011;13585;50.864;4.406;2023-05-29T04:03:57;4.78;;;2.78;;
25731;SDS011;13585;50.864;4.406;2023-05-29T04:06:22;6.53;;;2.90;;
25731;SDS011;13585;50.864;4.406;2023-05-29T04:08:48;5.03;;;2.75;;
25731;SDS011;13585;50.864;4.406;2023-05-29T04:11:31;4.45;;;3.00;;
25731;SDS011;13585;50.864;4.406;2023-05-29T04:14:01;6.13;;;2.92;;
25731;SDS011;13585;50.864;4.406;2023-05-29T04:16:27;4.20;;;2.75;;
25731;SDS011;13585;50.864;4.406;2023-05-29T04:18:54;5.43;;;2.75;;
25731;SDS011;13585;50.864;4.406;2023-05-29T04:21:20;7.82;;;2.70;;
25731;SDS011;13585;50.864;4.406;2023-05-29T04:23:46;4.88;;;2.97;;
25731;SDS011;13585;50.864;4.406;2023-05-29T04:26:12;4.78;;;2.55;;
25731;SDS011;13585;50.864;4.406;2023-05-29T04:28:40;5.93;;;2.80;;
25731;SDS011;13585;50.864;4.406;2023-05-29T04:31:09;5.82;;;3.00;;
25731;SDS011;13585;50.864;4.406;2023-05-29T04:33:39;5.68;;;3.10;;
25731;SDS011;13585;50.864;4.406;2023-05-29T04:36:10;5.38;;;2.65;;
25731;SDS011;13585;50.864;4.406;2023-05-29T04:38:35;5.05;;;2.53;;
25731;SDS011;13585;50.864;4.406;2023-05-29T04:41:02;3.25;;;2.40;;
25731;SDS011;13585;50.864;4.406;2023-05-29T04:43:29;6.65;;;2.70;;
25731;SDS011;13585;50.864;4.406;2023-05-29T04:45:55;6.03;;;2.75;;
25731;SDS011;13585;50.864;4.406;2023-05-29T04:48:22;4.68;;;2.30;;
25731;SDS011;13585;50.864;4.406;2023-05-29T04:50:48;4.97;;;2.50;;
25731;SDS011;13585;50.864;4.406;2023-05-29T04:53:14;5.00;;;2.30;;
25731;SDS011;13585;50.864;4.406;2023-05-29T04:55:40;7.18;;;2.78;;
25731;SDS011;13585;50.864;4.406;2023-05-29T04:58:05;5.05;;;2.42;;
25731;SDS011;13585;50.864;4.406;2023-05-29T05:00:31;4.50;;;2.25;;
25731;SDS011;13585;50.864;4.406;2023-05-29T05:02:57;4.40;;;2.40;;
25731;SDS011;13585;50.864;4.406;2023-05-29T05:05:22;4.65;;;2.55;;
25731;SDS011;13585;50.864;4.406;2023-05-29T05:07:48;6.15;;;2.85;;
25731;SDS011;13585;50.864;4.406;2023-05-29T05:10:14;5.47;;;2.67;;
25731;SDS011;13585;50.864;4.406;2023-05-29T05:12:39;4.68;;;2.63;;
25731;SDS011;13585;50.864;4.406;2023-05-29T05:15:05;4.00;;;2.22;;
25731;SDS011;13585;50.864;4.406;2023-05-29T05:17:31;4.93;;;2.38;;
25731;SDS011;13585;50.864;4.406;2023-05-29T05:19:57;5.07;;;2.63;;
25731;SDS011;13585;50.864;4.406;2023-05-29T05:22:23;4.30;;;2.30;;
25731;SDS011;13585;50.864;4.406;2023-05-29T05:24:48;5.78;;;2.25;;
25731;SDS011;13585;50.864;4.406;2023-05-29T05:27:14;5.65;;;2.72;;
25731;SDS011;13585;50.864;4.406;2023-05-29T05:29:40;5.75;;;2.33;;
25731;SDS011;13585;50.864;4.406;2023-05-29T05:32:05;7.22;;;2.75;;
25731;SDS011;13585;50.864;4.406;2023-05-29T05:34:40;4.28;;;2.03;;
25731;SDS011;13585;50.864;4.406;2023-05-29T05:37:06;5.15;;;2.60;;
25731;SDS011;13585;50.864;4.406;2023-05-29T05:39:32;5.45;;;2.30;;
25731;SDS011;13585;50.864;4.406;2023-05-29T05:41:57;5.57;;;2.60;;
25731;SDS011;13585;50.864;4.406;2023-05-29T05:44:23;6.18;;;2.75;;
25731;SDS011;13585;50.864;4.406;2023-05-29T05:46:51;4.10;;;2.30;;
25731;SDS011;13585;50.864;4.406;2023-05-29T05:49:17;6.72;;;2.67;;
25731;SDS011;13585;50.864;4.406;2023-05-29T05:51:43;5.25;;;2.13;;
25731;SDS011;13585;50.864;4.406;2023-05-29T05:54:08;6.82;;;2.70;;
25731;SDS011;13585;50.864;4.406;2023-05-29T05:56:35;6.88;;;2.75;;
25731;SDS011;13585;50.864;4.406;2023-05-29T05:59:00;5.82;;;2.40;;
25731;SDS011;13585;50.864;4.406;2023-05-29T06:01:26;5.80;;;2.33;;
25731;SDS011;13585;50.864;4.406;2023-05-29T06:03:52;4.75;;;2.22;;
25731;SDS011;13585;50.864;4.406;2023-05-29T06:06:18;6.25;;;2.38;;
25731;SDS011;13585;50.864;4.406;2023-05-29T06:08:44;4.45;;;2.38;;
25731;SDS011;13585;50.864;4.406;2023-05-29T06:11:11;4.72;;;2.30;;
25731;SDS011;13585;50.864;4.406;2023-05-29T06:13:37;6.15;;;2.30;;
25731;SDS011;13585;50.864;4.406;2023-05-29T06:16:03;5.30;;;2.53;;
25731;SDS011;13585;50.864;4.406;2023-05-29T06:18:32;4.90;;;2.15;;
25731;SDS011;13585;50.864;4.406;2023-05-29T06:20:57;5.93;;;2.63;;
25731;SDS011;13585;50.864;4.406;2023-05-29T06:23:23;3.92;;;2.47;;
25731;SDS011;13585;50.864;4.406;2023-05-29T06:25:49;4.93;;;2.20;;
25731;SDS011;13585;50.864;4.406;2023-05-29T06:28:17;3.78;;;2.15;;
25731;SDS011;13585;50.864;4.406;2023-05-29T06:30:42;7.50;;;2.70;;
25731;SDS011;13585;50.864;4.406;2023-05-29T06:33:08;5.28;;;2.40;;
25731;SDS011;13585;50.864;4.406;2023-05-29T06:35:34;5.97;;;2.70;;
25731;SDS011;13585;50.864;4.406;2023-05-29T06:38:00;4.93;;;2.20;;
25731;SDS011;13585;50.864;4.406;2023-05-29T06:40:28;4.70;;;1.98;;
25731;SDS011;13585;50.864;4.406;2023-05-29T06:43:05;7.90;;;2.55;;
25731;SDS011;13585;50.864;4.406;2023-05-29T06:45:31;4.80;;;1.90;;
25731;SDS011;13585;50.864;4.406;2023-05-29T06:47:56;6.50;;;2.33;;
25731;SDS011;13585;50.864;4.406;2023-05-29T06:50:22;4.45;;;2.05;;
25731;SDS011;13585;50.864;4.406;2023-05-29T06:52:51;3.35;;;1.70;;
25731;SDS011;13585;50.864;4.406;2023-05-29T06:55:16;6.18;;;2.30;;
25731;SDS011;13585;50.864;4.406;2023-05-29T06:57:42;5.70;;;2.20;;
25731;SDS011;13585;50.864;4.406;2023-05-29T07:00:08;5.18;;;2.03;;
25731;SDS011;13585;50.864;4.406;2023-05-29T07:02:35;4.13;;;1.88;;
25731;SDS011;13585;50.864;4.406;2023-05-29T07:05:01;6.45;;;2.17;;
25731;SDS011;13585;50.864;4.406;2023-05-29T07:07:28;6.68;;;2.28;;
25731;SDS011;13585;50.864;4.406;2023-05-29T07:09:54;4.53;;;2.20;;
25731;SDS011;13585;50.864;4.406;2023-05-29T07:12:21;6.93;;;2.20;;
25731;SDS011;13585;50.864;4.406;2023-05-29T07:14:48;8.48;;;2.10;;
25731;SDS011;13585;50.864;4.406;2023-05-29T07:17:14;4.22;;;1.90;;
25731;SDS011;13585;50.864;4.406;2023-05-29T07:19:40;5.28;;;2.15;;
25731;SDS011;13585;50.864;4.406;2023-05-29T07:22:06;6.82;;;2.00;;
25731;SDS011;13585;50.864;4.406;2023-05-29T07:24:31;5.57;;;2.00;;
25731;SDS011;13585;50.864;4.406;2023-05-29T07:26:57;7.28;;;2.50;;
25731;SDS011;13585;50.864;4.406;2023-05-29T07:29:23;8.55;;;2.25;;
25731;SDS011;13585;50.864;4.406;2023-05-29T07:31:50;8.32;;;2.45;;
25731;SDS011;13585;50.864;4.406;2023-05-29T07:34:16;8.32;;;2.20;;
25731;SDS011;13585;50.864;4.406;2023-05-29T07:37:00;5.70;;;2.08;;
25731;SDS011;13585;50.864;4.406;2023-05-29T07:39:30;4.80;;;1.92;;
25731;SDS011;13585;50.864;4.406;2023-05-29T07:41:59;8.45;;;2.08;;
25731;SDS011;13585;50.864;4.406;2023-05-29T07:44:31;5.05;;;2.20;;
25731;SDS011;13585;50.864;4.406;2023-05-29T07:46:57;4.22;;;1.80;;
25731;SDS011;13585;50.864;4.406;2023-05-29T07:49:22;9.10;;;2.33;;
25731;SDS011;13585;50.864;4.406;2023-05-29T07:51:48;5.95;;;2.00;;
25731;SDS011;13585;50.864;4.406;2023-05-29T07:54:14;8.52;;;1.88;;
25731;SDS011;13585;50.864;4.406;2023-05-29T07:56:43;4.45;;;1.80;;
25731;SDS011;13585;50.864;4.406;2023-05-29T07:59:09;5.70;;;1.95;;
25731;SDS011;13585;50.864;4.406;2023-05-29T08:01:35;6.18;;;1.88;;
25731;SDS011;13585;50.864;4.406;2023-05-29T08:04:02;6.60;;;1.90;;
25731;SDS011;13585;50.864;4.406;2023-05-29T08:06:27;7.00;;;2.00;;
25731;SDS011;13585;50.864;4.406;2023-05-29T08:08:53;4.80;;;2.10;;
25731;SDS011;13585;50.864;4.406;2023-05-29T08:11:19;7.20;;;1.75;;
25731;SDS011;13585;50.864;4.406;2023-05-29T08:13:44;8.07;;;2.17;;
25731;SDS011;13585;50.864;4.406;2023-05-29T08:16:10;6.13;;;1.40;;
25731;SDS011;13585;50.864;4.406;2023-05-29T08:18:39;4.45;;;1.85;;
25731;SDS011;13585;50.864;4.406;2023-05-29T08:21:04;3.17;;;1.48;;
25731;SDS011;13585;50.864;4.406;2023-05-29T08:23:30;3.63;;;1.60;;
25731;SDS011;13585;50.864;4.406;2023-05-29T08:25:56;4.05;;;1.83;;
25731;SDS011;13585;50.864;4.406;2023-05-29T08:28:22;7.32;;;1.67;;
25731;SDS011;13585;50.864;4.406;2023-05-29T08:30:48;5.63;;;1.80;;
25731;SDS011;13585;50.864;4.406;2023-05-29T08:33:13;5.43;;;1.92;;
25731;SDS011;13585;50.864;4.406;2023-05-29T08:35:39;3.65;;;1.50;;
25731;SDS011;13585;50.864;4.406;2023-05-29T08:38:04;5.18;;;2.22;;
25731;SDS011;13585;50.864;4.406;2023-05-29T08:40:31;4.72;;;1.80;;
25731;SDS011;13585;50.864;4.406;2023-05-29T08:42:58;4.82;;;1.83;;
25731;SDS011;13585;50.864;4.406;2023-05-29T08:45:27;6.80;;;1.90;;
25731;SDS011;13585;50.864;4.406;2023-05-29T08:47:54;5.28;;;1.40;;
25731;SDS011;13585;50.864;4.406;2023-05-29T08:50:25;5.85;;;1.80;;
25731;SDS011;13585;50.864;4.406;2023-05-29T08:52:51;4.65;;;1.65;;
25731;SDS011;13585;50.864;4.406;2023-05-29T08:55:18;5.13;;;1.70;;
25731;SDS011;13585;50.864;4.406;2023-05-29T08:57:43;5.28;;;1.70;;
25731;SDS011;13585;50.864;4.406;2023-05-29T09:00:11;4.15;;;1.35;;
25731;SDS011;13585;50.864;4.406;2023-05-29T09:02:46;4.80;;;1.70;;
25731;SDS011;13585;50.864;4.406;2023-05-29T09:05:12;5.50;;;1.40;;
25731;SDS011;13585;50.864;4.406;2023-05-29T09:07:38;4.65;;;1.63;;
25731;SDS011;13585;50.864;4.406;2023-05-29T09:10:10;4.18;;;1.58;;
25731;SDS011;13585;50.864;4.406;2023-05-29T09:12:38;5.13;;;1.40;;
25731;SDS011;13585;50.864;4.406;2023-05-29T09:15:13;5.13;;;1.83;;
25731;SDS011;13585;50.864;4.406;2023-05-29T09:20:18;3.53;;;1.60;;
25731;SDS011;13585;50.864;4.406;2023-05-29T09:25:30;5.70;;;1.63;;
25731;SDS011;13585;50.864;4.406;2023-05-29T09:30:40;4.78;;;1.80;;
25731;SDS011;13585;50.864;4.406;2023-05-29T09:33:07;4.65;;;1.88;;
25731;SDS011;13585;50.864;4.406;2023-05-29T09:35:36;2.13;;;1.13;;
25731;SDS011;13585;50.864;4.406;2023-05-29T09:38:20;4.68;;;1.60;;
25731;SDS011;13585;50.864;4.406;2023-05-29T09:41:21;5.00;;;1.73;;
25731;SDS011;13585;50.864;4.406;2023-05-29T09:43:48;4.90;;;1.60;;
25731;SDS011;13585;50.864;4.406;2023-05-29T09:46:18;8.38;;;2.00;;
25731;SDS011;13585;50.864;4.406;2023-05-29T09:48:45;6.70;;;1.42;;
25731;SDS011;13585;50.864;4.406;2023-05-29T09:51:21;3.83;;;1.65;;
25731;SDS011;13585;50.864;4.406;2023-05-29T09:54:12;4.47;;;1.90;;
25731;SDS011;13585;50.864;4.406;2023-05-29T09:57:27;4.30;;;1.48;;
25731;SDS011;13585;50.864;4.406;2023-05-29T10:00:15;6.13;;;1.77;;
25731;SDS011;13585;50.864;4.406;2023-05-29T10:03:08;7.25;;;2.30;;
25731;SDS011;13585;50.864;4.406;2023-05-29T10:05:50;6.22;;;2.15;;
25731;SDS011;13585;50.864;4.406;2023-05-29T10:08:18;5.57;;;1.90;;
25731;SDS011;13585;50.864;4.406;2023-05-29T10:10:49;8.25;;;2.25;;
25731;SDS011;13585;50.864;4.406;2023-05-29T10:13:41;5.32;;;1.90;;
25731;SDS011;13585;50.864;4.406;2023-05-29T10:16:13;8.55;;;2.58;;
25731;SDS011;13585;50.864;4.406;2023-05-29T10:18:43;9.35;;;2.60;;
25731;SDS011;13585;50.864;4.406;2023-05-29T10:21:14;6.13;;;2.28;;
25731;SDS011;13585;50.864;4.406;2023-05-29T10:23:42;6.65;;;2.10;;
25731;SDS011;13585;50.864;4.406;2023-05-29T10:26:29;7.38;;;2.33;;
25731;SDS011;13585;50.864;4.406;2023-05-29T10:37:40;10.30;;;2.50;;
25731;SDS011;13585;50.864;4.406;2023-05-29T10:40:11;7.47;;;1.95;;
25731;SDS011;13585;50.864;4.406;2023-05-29T10:42:43;7.38;;;2.30;;
25731;SDS011;13585;50.864;4.406;2023-05-29T10:45:10;8.60;;;2.28;;
25731;SDS011;13585;50.864;4.406;2023-05-29T10:47:47;6.60;;;1.98;;
25731;SDS011;13585;50.864;4.406;2023-05-29T10:50:13;7.95;;;2.00;;
25731;SDS011;13585;50.864;4.406;2023-05-29T10:52:58;6.95;;;2.17;;
25731;SDS011;13585;50.864;4.406;2023-05-29T10:55:33;9.13;;;2.38;;
25731;SDS011;13585;50.864;4.406;2023-05-29T10:58:04;8.55;;;2.53;;
25731;SDS011;13585;50.864;4.406;2023-05-29T11:01:10;8.55;;;1.92;;
25731;SDS011;13585;50.864;4.406;2023-05-29T11:03:35;7.78;;;2.33;;
25731;SDS011;13585;50.864;4.406;2023-05-29T11:06:05;4.53;;;2.20;;
25731;SDS011;13585;50.864;4.406;2023-05-29T11:08:45;7.70;;;2.22;;
25731;SDS011;13585;50.864;4.406;2023-05-29T11:11:30;6.97;;;1.85;;
25731;SDS011;13585;50.864;4.406;2023-05-29T11:14:02;8.75;;;1.90;;
25731;SDS011;13585;50.864;4.406;2023-05-29T11:18:55;5.88;;;1.80;;
25731;SDS011;13585;50.864;4.406;2023-05-29T11:24:14;7.55;;;2.30;;
25731;SDS011;13585;50.864;4.406;2023-05-29T11:26:49;7.38;;;2.35;;
25731;SDS011;13585;50.864;4.406;2023-05-29T11:29:17;8.50;;;2.28;;
25731;SDS011;13585;50.864;4.406;2023-05-29T11:31:47;6.43;;;2.40;;
25731;SDS011;13585;50.864;4.406;2023-05-29T11:34:19;8.57;;;2.20;;
25731;SDS011;13585;50.864;4.406;2023-05-29T11:36:47;7.18;;;2.17;;
25731;SDS011;13585;50.864;4.406;2023-05-29T11:39:14;7.05;;;2.38;;
25731;SDS011;13585;50.864;4.406;2023-05-29T11:41:40;5.55;;;2.50;;
25731;SDS011;13585;50.864;4.406;2023-05-29T11:44:05;7.70;;;2.63;;
25731;SDS011;13585;50.864;4.406;2023-05-29T11:46:31;5.95;;;2.38;;
25731;SDS011;13585;50.864;4.406;2023-05-29T11:49:00;8.75;;;2.38;;
25731;SDS011;13585;50.864;4.406;2023-05-29T11:51:27;8.90;;;2.40;;
25731;SDS011;13585;50.864;4.406;2023-05-29T11:53:52;5.38;;;2.38;;
25731;SDS011;13585;50.864;4.406;2023-05-29T11:56:23;5.97;;;2.50;;
25731;SDS011;13585;50.864;4.406;2023-05-29T12:01:27;7.82;;;2.67;;
25731;SDS011;13585;50.864;4.406;2023-05-29T12:03:53;7.05;;;2.53;;
25731;SDS011;13585;50.864;4.406;2023-05-29T12:06:32;7.30;;;2.35;;
25731;SDS011;13585;50.864;4.406;2023-05-29T12:09:03;4.70;;;2.03;;
25731;SDS011;13585;50.864;4.406;2023-05-29T12:11:30;7.53;;;2.70;;
25731;SDS011;13585;50.864;4.406;2023-05-29T12:14:00;8.65;;;2.10;;
25731;SDS011;13585;50.864;4.406;2023-05-29T12:16:27;6.15;;;2.35;;
25731;SDS011;13585;50.864;4.406;2023-05-29T12:18:55;6.72;;;2.40;;
25731;SDS011;13585;50.864;4.406;2023-05-29T12:21:21;6.13;;;2.30;;
25731;SDS011;13585;50.864;4.406;2023-05-29T12:23:51;4.18;;;1.80;;
25731;SDS011;13585;50.864;4.406;2023-05-29T12:26:17;5.75;;;2.15;;
25731;SDS011;13585;50.864;4.406;2023-05-29T12:28:45;6.40;;;2.08;;
25731;SDS011;13585;50.864;4.406;2023-05-29T12:31:11;5.28;;;2.28;;
25731;SDS011;13585;50.864;4.406;2023-05-29T12:33:40;8.00;;;2.20;;
25731;SDS011;13585;50.864;4.406;2023-05-29T12:36:08;5.93;;;2.08;;
25731;SDS011;13585;50.864;4.406;2023-05-29T12:38:51;6.15;;;2.35;;
25731;SDS011;13585;50.864;4.406;2023-05-29T12:43:53;6.93;;;2.10;;
25731;SDS011;13585;50.864;4.406;2023-05-29T12:46:23;7.38;;;2.45;;
25731;SDS011;13585;50.864;4.406;2023-05-29T12:48:54;7.75;;;2.25;;
25731;SDS011;13585;50.864;4.406;2023-05-29T12:51:24;7.90;;;2.45;;
25731;SDS011;13585;50.864;4.406;2023-05-29T12:53:51;10.63;;;2.28;;
25731;SDS011;13585;50.864;4.406;2023-05-29T12:56:19;8.00;;;2.17;;
25731;SDS011;13585;50.864;4.406;2023-05-29T12:58:47;6.75;;;2.40;;
25731;SDS011;13585;50.864;4.406;2023-05-29T13:01:13;6.95;;;2.53;;
25731;SDS011;13585;50.864;4.406;2023-05-29T13:03:40;5.68;;;1.75;;
25731;SDS011;13585;50.864;4.406;2023-05-29T13:06:06;7.35;;;2.40;;
25731;SDS011;13585;50.864;4.406;2023-05-29T13:08:32;9.32;;;2.53;;
25731;SDS011;13585;50.864;4.406;2023-05-29T13:10:57;7.90;;;2.40;;
25731;SDS011;13585;50.864;4.406;2023-05-29T13:13:23;7.53;;;2.65;;
25731;SDS011;13585;50.864;4.406;2023-05-29T13:15:48;8.40;;;2.60;;
25731;SDS011;13585;50.864;4.406;2023-05-29T13:18:14;7.82;;;2.50;;
25731;SDS011;13585;50.864;4.406;2023-05-29T13:20:40;9.63;;;2.72;;
25731;SDS011;13585;50.864;4.406;2023-05-29T13:23:06;6.10;;;2.28;;
25731;SDS011;13585;50.864;4.406;2023-05-29T13:25:33;7.38;;;2.33;;
25731;SDS011;13585;50.864;4.406;2023-05-29T13:27:59;10.18;;;2.70;;
25731;SDS011;13585;50.864;4.406;2023-05-29T13:30:25;9.93;;;2.33;;
25731;SDS011;13585;50.864;4.406;2023-05-29T13:32:52;7.45;;;2.45;;
25731;SDS011;13585;50.864;4.406;2023-05-29T13:35:18;8.50;;;2.88;;
25731;SDS011;13585;50.864;4.406;2023-05-29T13:37:44;7.43;;;2.50;;
25731;SDS011;13585;50.864;4.406;2023-05-29T13:40:30;11.43;;;2.45;;
25731;SDS011;13585;50.864;4.406;2023-05-29T13:43:11;9.05;;;2.67;;
25731;SDS011;13585;50.864;4.406;2023-05-29T13:45:37;7.95;;;2.42;;
25731;SDS011;13585;50.864;4.406;2023-05-29T13:48:05;8.48;;;2.42;;
25731;SDS011;13585;50.864;4.406;2023-05-29T13:50:34;7.57;;;2.30;;
25731;SDS011;13585;50.864;4.406;2023-05-29T13:53:08;7.13;;;2.28;;
25731;SDS011;13585;50.864;4.406;2023-05-29T13:55:34;8.63;;;2.47;;
25731;SDS011;13585;50.864;4.406;2023-05-29T13:57:59;7.43;;;2.40;;
25731;SDS011;13585;50.864;4.406;2023-05-29T14:00:27;12.23;;;2.55;;
25731;SDS011;13585;50.864;4.406;2023-05-29T14:02:53;9.45;;;2.40;;
25731;SDS011;13585;50.864;4.406;2023-05-29T14:05:22;7.32;;;2.47;;
25731;SDS011;13585;50.864;4.406;2023-05-29T14:07:50;6.10;;;2.25;;
25731;SDS011;13585;50.864;4.406;2023-05-29T14:10:16;8.32;;;2.80;;
25731;SDS011;13585;50.864;4.406;2023-05-29T14:12:41;6.63;;;2.13;;
25731;SDS011;13585;50.864;4.406;2023-05-29T14:15:07;5.00;;;1.75;;
25731;SDS011;13585;50.864;4.406;2023-05-29T14:17:33;7.82;;;2.53;;
25731;SDS011;13585;50.864;4.406;2023-05-29T14:19:59;8.45;;;2.70;;
25731;SDS011;13585;50.864;4.406;2023-05-29T14:22:29;6.53;;;2.10;;
25731;SDS011;13585;50.864;4.406;2023-05-29T14:24:55;7.10;;;2.47;;
25731;SDS011;13585;50.864;4.406;2023-05-29T14:27:21;7.22;;;2.45;;
25731;SDS011;13585;50.864;4.406;2023-05-29T14:29:46;5.97;;;2.28;;
25731;SDS011;13585;50.864;4.406;2023-05-29T14:32:12;6.32;;;2.10;;
25731;SDS011;13585;50.864;4.406;2023-05-29T14:34:38;7.82;;;2.35;;
25731;SDS011;13585;50.864;4.406;2023-05-29T14:37:03;7.82;;;2.40;;
25731;SDS011;13585;50.864;4.406;2023-05-29T14:39:29;6.93;;;2.35;;
25731;SDS011;13585;50.864;4.406;2023-05-29T14:41:55;7.57;;;2.30;;
25731;SDS011;13585;50.864;4.406;2023-05-29T14:44:21;7.03;;;2.13;;
25731;SDS011;13585;50.864;4.406;2023-05-29T14:46:50;6.35;;;1.92;;
25731;SDS011;13585;50.864;4.406;2023-05-29T14:49:16;9.27;;;2.53;;
25731;SDS011;13585;50.864;4.406;2023-05-29T14:51:41;6.10;;;1.98;;
25731;SDS011;13585;50.864;4.406;2023-05-29T14:54:09;6.28;;;2.42;;
25731;SDS011;13585;50.864;4.406;2023-05-29T14:56:36;7.60;;;2.70;;
25731;SDS011;13585;50.864;4.406;2023-05-29T14:59:02;6.70;;;2.30;;
25731;SDS011;13585;50.864;4.406;2023-05-29T15:01:31;8.50;;;2.60;;
25731;SDS011;13585;50.864;4.406;2023-05-29T15:03:56;6.60;;;2.38;;
25731;SDS011;13585;50.864;4.406;2023-05-29T15:06:22;6.78;;;2.50;;
25731;SDS011;13585;50.864;4.406;2023-05-29T15:08:48;5.18;;;2.03;;
25731;SDS011;13585;50.864;4.406;2023-05-29T15:11:23;8.82;;;2.42;;
25731;SDS011;13585;50.864;4.406;2023-05-29T15:13:50;7.15;;;2.10;;
25731;SDS011;13585;50.864;4.406;2023-05-29T15:16:15;10.68;;;2.40;;
25731;SDS011;13585;50.864;4.406;2023-05-29T15:18:41;6.75;;;2.13;;
25731;SDS011;13585;50.864;4.406;2023-05-29T15:21:07;6.35;;;2.10;;
25731;SDS011;13585;50.864;4.406;2023-05-29T15:23:32;8.13;;;2.03;;
25731;SDS011;13585;50.864;4.406;2023-05-29T15:26:00;6.72;;;2.42;;
25731;SDS011;13585;50.864;4.406;2023-05-29T15:28:27;5.43;;;2.25;;
25731;SDS011;13585;50.864;4.406;2023-05-29T15:30:53;6.68;;;2.10;;